sensor_id;sensor_type;location;lat;lon;timestamp;temperature;humidity
8180;DHT22;4131;48.810;11.892;2022-12-18T00:01:51;-6.30;99.90
8180;DHT22;4131;48.810;11.892;2022-12-18T00:04:21;-6.30;99.90
8180;DHT22;4131;48.810;11.892;2022-12-18T00:06:50;-6.30;99.90
8180;DHT22;4131;48.810;11.892;2022-12-18T00:09:18;-6.30;99.90
8180;DHT22;4131;48.810;11.892;2022-12-18T00:11:50;-6.30;99.90
8180;DHT22;4131;48.810;11.892;2022-12-18T00:14:19;-6.20;99.90
8180;DHT22;4131;48.810;11.892;2022-12-18T00:16:47;-6.30;99.90
8180;DHT22;4131;48.810;11.892;2022-12-18T00:19:15;-6.20;99.90
8180;DHT22;4131;48.810;11.892;2022-12-18T00:21:44;-6.30;99.90
8180;DHT22;4131;48.810;11.892;2022-12-18T00:24:12;-6.30;99.90
8180;DHT22;4131;48.810;11.892;2022-12-18T00:26:40;-6.20;99.90
8180;DHT22;4131;48.810;11.892;2022-12-18T00:29:11;-6.30;99.90
8180;DHT22;4131;48.810;11.892;2022-12-18T00:31:43;-6.20;99.90
8180;DHT22;4131;48.810;11.892;2022-12-18T00:34:12;-6.20;99.90
8180;DHT22;4131;48.810;11.892;2022-12-18T00:36:40;-6.20;99.90
8180;DHT22;4131;48.810;11.892;2022-12-18T00:39:10;-6.20;99.90
8180;DHT22;4131;48.810;11.892;2022-12-18T00:41:39;-6.10;99.90
8180;DHT22;4131;48.810;11.892;2022-12-18T00:44:24;-6.10;99.90
8180;DHT22;4131;48.810;11.892;2022-12-18T00:46:53;-6.10;99.90
8180;DHT22;4131;48.810;11.892;2022-12-18T00:49:21;-6.10;99.90
8180;DHT22;4131;48.810;11.892;2022-12-18T00:51:49;-6.10;99.90
8180;DHT22;4131;48.810;11.892;2022-12-18T00:54:17;-6.10;99.90
8180;DHT22;4131;48.810;11.892;2022-12-18T00:56:45;-6.00;99.90
8180;DHT22;4131;48.810;11.892;2022-12-18T00:59:16;-5.70;99.90
8180;DHT22;4131;48.810;11.892;2022-12-18T01:01:44;-6.00;99.90
8180;DHT22;4131;48.810;11.892;2022-12-18T01:04:14;-6.00;99.90
8180;DHT22;4131;48.810;11.892;2022-12-18T01:06:42;-6.00;99.90
8180;DHT22;4131;48.810;11.892;2022-12-18T01:09:10;-6.00;99.90
8180;DHT22;4131;48.810;11.892;2022-12-18T01:11:38;-5.90;99.90
8180;DHT22;4131;48.810;11.892;2022-12-18T01:14:07;-5.90;99.90
8180;DHT22;4131;48.810;11.892;2022-12-18T01:16:35;-5.90;99.90
8180;DHT22;4131;48.810;11.892;2022-12-18T01:19:03;-5.90;99.90
8180;DHT22;4131;48.810;11.892;2022-12-18T01:21:32;-5.90;99.90
8180;DHT22;4131;48.810;11.892;2022-12-18T01:24:00;-5.90;99.90
8180;DHT22;4131;48.810;11.892;2022-12-18T01:26:28;-5.80;99.90
8180;DHT22;4131;48.810;11.892;2022-12-18T01:28:57;-5.80;99.90
8180;DHT22;4131;48.810;11.892;2022-12-18T01:31:27;-5.80;99.90
8180;DHT22;4131;48.810;11.892;2022-12-18T01:33:55;-5.80;99.90
8180;DHT22;4131;48.810;11.892;2022-12-18T01:36:25;-5.80;99.90
8180;DHT22;4131;48.810;11.892;2022-12-18T01:38:56;-5.70;99.90
8180;DHT22;4131;48.810;11.892;2022-12-18T01:41:31;-5.70;99.90
8180;DHT22;4131;48.810;11.892;2022-12-18T01:44:50;-5.70;99.90
8180;DHT22;4131;48.810;11.892;2022-12-18T01:47:23;-5.70;99.90
8180;DHT22;4131;48.810;11.892;2022-12-18T01:49:52;-5.70;99.90
8180;DHT22;4131;48.810;11.892;2022-12-18T01:52:21;-5.70;99.90
8180;DHT22;4131;48.810;11.892;2022-12-18T01:54:52;-5.70;99.90
8180;DHT22;4131;48.810;11.892;2022-12-18T01:57:20;-5.70;99.90
8180;DHT22;4131;48.810;11.892;2022-12-18T01:59:52;-5.60;99.90
8180;DHT22;4131;48.810;11.892;2022-12-18T02:02:21;-5.60;99.90
8180;DHT22;4131;48.810;11.892;2022-12-18T02:04:49;-5.60;99.90
8180;DHT22;4131;48.810;11.892;2022-12-18T02:07:25;-5.60;99.90
8180;DHT22;4131;48.810;11.892;2022-12-18T02:09:59;-5.60;99.90
8180;DHT22;4131;48.810;11.892;2022-12-18T02:12:33;-5.60;99.90
8180;DHT22;4131;48.810;11.892;2022-12-18T02:15:06;-5.50;99.90
8180;DHT22;4131;48.810;11.892;2022-12-18T02:17:41;-5.50;99.90
8180;DHT22;4131;48.810;11.892;2022-12-18T02:20:16;-5.50;99.90
8180;DHT22;4131;48.810;11.892;2022-12-18T02:22:55;-5.50;99.90
8180;DHT22;4131;48.810;11.892;2022-12-18T02:25:40;-5.50;99.90
8180;DHT22;4131;48.810;11.892;2022-12-18T02:28:12;-5.50;99.90
8180;DHT22;4131;48.810;11.892;2022-12-18T02:30:42;-5.50;99.90
8180;DHT22;4131;48.810;11.892;2022-12-18T02:33:11;-5.50;99.90
8180;DHT22;4131;48.810;11.892;2022-12-18T02:35:40;-5.50;99.90
8180;DHT22;4131;48.810;11.892;2022-12-18T02:38:09;-5.50;99.90
8180;DHT22;4131;48.810;11.892;2022-12-18T02:40:39;-5.50;99.90
8180;DHT22;4131;48.810;11.892;2022-12-18T02:43:09;-5.50;99.90
8180;DHT22;4131;48.810;11.892;2022-12-18T02:45:46;-5.40;99.90
8180;DHT22;4131;48.810;11.892;2022-12-18T02:48:15;-5.40;99.90
8180;DHT22;4131;48.810;11.892;2022-12-18T02:50:49;-5.50;99.90
8180;DHT22;4131;48.810;11.892;2022-12-18T02:53:24;-5.50;99.90
8180;DHT22;4131;48.810;11.892;2022-12-18T02:56:01;-5.40;99.90
8180;DHT22;4131;48.810;11.892;2022-12-18T02:58:38;-5.40;99.90
8180;DHT22;4131;48.810;11.892;2022-12-18T03:01:16;-5.40;99.90
8180;DHT22;4131;48.810;11.892;2022-12-18T03:03:51;-5.40;99.90
8180;DHT22;4131;48.810;11.892;2022-12-18T03:06:24;-5.40;99.90
8180;DHT22;4131;48.810;11.892;2022-12-18T03:08:58;-5.40;99.90
8180;DHT22;4131;48.810;11.892;2022-12-18T03:11:29;-5.40;99.90
8180;DHT22;4131;48.810;11.892;2022-12-18T03:14:20;-5.40;99.90
8180;DHT22;4131;48.810;11.892;2022-12-18T03:16:52;-5.30;99.90
8180;DHT22;4131;48.810;11.892;2022-12-18T03:19:22;-5.40;99.90
8180;DHT22;4131;48.810;11.892;2022-12-18T03:21:56;-5.30;99.90
8180;DHT22;4131;48.810;11.892;2022-12-18T03:24:26;-5.40;99.90
8180;DHT22;4131;48.810;11.892;2022-12-18T03:27:00;-5.40;99.90
8180;DHT22;4131;48.810;11.892;2022-12-18T03:29:35;-5.40;99.90
8180;DHT22;4131;48.810;11.892;2022-12-18T03:32:07;-5.30;99.90
8180;DHT22;4131;48.810;11.892;2022-12-18T03:34:40;-5.30;99.90
8180;DHT22;4131;48.810;11.892;2022-12-18T03:37:09;-5.30;99.90
8180;DHT22;4131;48.810;11.892;2022-12-18T03:39:38;-5.30;99.90
8180;DHT22;4131;48.810;11.892;2022-12-18T03:42:08;-5.30;99.90
8180;DHT22;4131;48.810;11.892;2022-12-18T03:44:44;-5.30;99.90
8180;DHT22;4131;48.810;11.892;2022-12-18T03:47:21;-5.30;99.90
8180;DHT22;4131;48.810;11.892;2022-12-18T03:49:57;-5.20;99.90
8180;DHT22;4131;48.810;11.892;2022-12-18T03:52:28;-5.20;99.90
8180;DHT22;4131;48.810;11.892;2022-12-18T03:54:58;-5.20;99.90
8180;DHT22;4131;48.810;11.892;2022-12-18T03:57:29;-5.20;99.90
8180;DHT22;4131;48.810;11.892;2022-12-18T04:00:03;-5.20;99.90
8180;DHT22;4131;48.810;11.892;2022-12-18T04:02:32;-5.20;99.90
8180;DHT22;4131;48.810;11.892;2022-12-18T04:05:04;-5.10;99.90
8180;DHT22;4131;48.810;11.892;2022-12-18T04:07:32;-5.10;99.90
8180;DHT22;4131;48.810;11.892;2022-12-18T04:10:01;-5.20;99.90
8180;DHT22;4131;48.810;11.892;2022-12-18T04:12:34;-5.10;99.90
8180;DHT22;4131;48.810;11.892;2022-12-18T04:15:23;-5.10;99.90
8180;DHT22;4131;48.810;11.892;2022-12-18T04:18:11;-5.10;99.90
8180;DHT22;4131;48.810;11.892;2022-12-18T04:20:39;-5.10;99.90
8180;DHT22;4131;48.810;11.892;2022-12-18T04:23:07;-5.10;99.90
8180;DHT22;4131;48.810;11.892;2022-12-18T04:25:35;-5.00;99.90
8180;DHT22;4131;48.810;11.892;2022-12-18T04:28:03;-5.00;99.90
8180;DHT22;4131;48.810;11.892;2022-12-18T04:30:33;-5.00;99.90
8180;DHT22;4131;48.810;11.892;2022-12-18T04:33:01;-5.00;99.90
8180;DHT22;4131;48.810;11.892;2022-12-18T04:35:29;-5.00;99.90
8180;DHT22;4131;48.810;11.892;2022-12-18T04:37:57;-5.00;99.90
8180;DHT22;4131;48.810;11.892;2022-12-18T04:40:25;-5.00;99.90
8180;DHT22;4131;48.810;11.892;2022-12-18T04:42:53;-5.00;99.90
8180;DHT22;4131;48.810;11.892;2022-12-18T04:45:21;-5.00;99.90
8180;DHT22;4131;48.810;11.892;2022-12-18T04:47:51;-5.00;99.90
8180;DHT22;4131;48.810;11.892;2022-12-18T04:50:19;-5.00;99.90
8180;DHT22;4131;48.810;11.892;2022-12-18T04:52:47;-5.00;99.90
8180;DHT22;4131;48.810;11.892;2022-12-18T04:55:15;-5.00;99.90
8180;DHT22;4131;48.810;11.892;2022-12-18T04:57:43;-4.90;99.90
8180;DHT22;4131;48.810;11.892;2022-12-18T05:00:12;-5.00;99.90
8180;DHT22;4131;48.810;11.892;2022-12-18T05:02:40;-4.20;99.90
8180;DHT22;4131;48.810;11.892;2022-12-18T05:05:10;-5.00;99.90
8180;DHT22;4131;48.810;11.892;2022-12-18T05:07:38;-4.90;99.90
8180;DHT22;4131;48.810;11.892;2022-12-18T05:10:07;-4.90;99.90
8180;DHT22;4131;48.810;11.892;2022-12-18T05:12:36;-4.90;99.90
8180;DHT22;4131;48.810;11.892;2022-12-18T05:15:27;-4.90;99.90
8180;DHT22;4131;48.810;11.892;2022-12-18T05:17:55;-4.90;99.90
8180;DHT22;4131;48.810;11.892;2022-12-18T05:20:26;-4.90;99.90
8180;DHT22;4131;48.810;11.892;2022-12-18T05:22:55;-4.90;99.90
8180;DHT22;4131;48.810;11.892;2022-12-18T05:25:23;-4.90;99.90
8180;DHT22;4131;48.810;11.892;2022-12-18T05:27:51;-4.90;99.90
8180;DHT22;4131;48.810;11.892;2022-12-18T05:30:19;-4.90;99.90
8180;DHT22;4131;48.810;11.892;2022-12-18T05:32:47;-4.90;99.90
8180;DHT22;4131;48.810;11.892;2022-12-18T05:35:15;-4.90;99.90
8180;DHT22;4131;48.810;11.892;2022-12-18T05:37:45;-4.90;99.90
8180;DHT22;4131;48.810;11.892;2022-12-18T05:40:13;-4.80;99.90
8180;DHT22;4131;48.810;11.892;2022-12-18T05:42:41;-4.90;99.90
8180;DHT22;4131;48.810;11.892;2022-12-18T05:45:09;-4.90;99.90
8180;DHT22;4131;48.810;11.892;2022-12-18T05:47:37;-4.90;99.90
8180;DHT22;4131;48.810;11.892;2022-12-18T05:50:07;-4.90;99.90
8180;DHT22;4131;48.810;11.892;2022-12-18T05:52:35;-4.90;99.90
8180;DHT22;4131;48.810;11.892;2022-12-18T05:55:04;-4.90;99.90
8180;DHT22;4131;48.810;11.892;2022-12-18T05:57:32;-5.00;99.90
8180;DHT22;4131;48.810;11.892;2022-12-18T06:00:01;-4.90;99.90
8180;DHT22;4131;48.810;11.892;2022-12-18T06:02:29;-5.00;99.90
8180;DHT22;4131;48.810;11.892;2022-12-18T06:04:57;-4.90;99.90
8180;DHT22;4131;48.810;11.892;2022-12-18T06:07:25;-4.90;99.90
8180;DHT22;4131;48.810;11.892;2022-12-18T06:09:53;-4.90;99.90
8180;DHT22;4131;48.810;11.892;2022-12-18T06:12:23;-4.90;99.90
8180;DHT22;4131;48.810;11.892;2022-12-18T06:14:51;-4.90;99.90
8180;DHT22;4131;48.810;11.892;2022-12-18T06:17:19;-4.90;99.90
8180;DHT22;4131;48.810;11.892;2022-12-18T06:19:47;-4.90;99.90
8180;DHT22;4131;48.810;11.892;2022-12-18T06:22:15;-4.90;99.90
8180;DHT22;4131;48.810;11.892;2022-12-18T06:24:43;-4.90;99.90
8180;DHT22;4131;48.810;11.892;2022-12-18T06:27:11;-4.60;99.90
8180;DHT22;4131;48.810;11.892;2022-12-18T06:29:41;-4.70;99.90
8180;DHT22;4131;48.810;11.892;2022-12-18T06:32:12;-4.90;99.90
8180;DHT22;4131;48.810;11.892;2022-12-18T06:34:40;-4.90;99.90
8180;DHT22;4131;48.810;11.892;2022-12-18T06:37:08;-4.90;99.90
8180;DHT22;4131;48.810;11.892;2022-12-18T06:39:36;-4.90;99.90
8180;DHT22;4131;48.810;11.892;2022-12-18T06:42:04;-4.80;99.90
8180;DHT22;4131;48.810;11.892;2022-12-18T06:44:32;-4.80;99.90
8180;DHT22;4131;48.810;11.892;2022-12-18T06:47:02;-4.90;99.90
8180;DHT22;4131;48.810;11.892;2022-12-18T06:49:30;-4.90;99.90
8180;DHT22;4131;48.810;11.892;2022-12-18T06:51:58;-4.90;99.90
8180;DHT22;4131;48.810;11.892;2022-12-18T06:54:26;-5.10;99.90
8180;DHT22;4131;48.810;11.892;2022-12-18T06:56:54;-5.10;99.90
8180;DHT22;4131;48.810;11.892;2022-12-18T06:59:22;-5.00;99.90
8180;DHT22;4131;48.810;11.892;2022-12-18T07:01:50;-5.00;99.90
8180;DHT22;4131;48.810;11.892;2022-12-18T07:04:20;-5.00;99.90
8180;DHT22;4131;48.810;11.892;2022-12-18T07:06:48;-5.00;99.90
8180;DHT22;4131;48.810;11.892;2022-12-18T07:09:16;-4.90;99.90
8180;DHT22;4131;48.810;11.892;2022-12-18T07:11:44;-4.90;99.90
8180;DHT22;4131;48.810;11.892;2022-12-18T07:14:12;-4.90;99.90
8180;DHT22;4131;48.810;11.892;2022-12-18T07:16:40;-4.90;99.90
8180;DHT22;4131;48.810;11.892;2022-12-18T07:19:08;-4.90;99.90
8180;DHT22;4131;48.810;11.892;2022-12-18T07:21:38;-4.30;99.90
8180;DHT22;4131;48.810;11.892;2022-12-18T07:24:06;-4.90;99.90
8180;DHT22;4131;48.810;11.892;2022-12-18T07:26:34;-4.90;99.90
8180;DHT22;4131;48.810;11.892;2022-12-18T07:29:02;-4.90;99.90
8180;DHT22;4131;48.810;11.892;2022-12-18T07:31:31;-4.90;99.90
8180;DHT22;4131;48.810;11.892;2022-12-18T07:33:59;-4.30;99.90
8180;DHT22;4131;48.810;11.892;2022-12-18T07:36:28;-4.80;99.90
8180;DHT22;4131;48.810;11.892;2022-12-18T07:38:57;-4.80;99.90
8180;DHT22;4131;48.810;11.892;2022-12-18T07:41:25;-4.80;99.90
8180;DHT22;4131;48.810;11.892;2022-12-18T07:43:53;-4.80;99.90
8180;DHT22;4131;48.810;11.892;2022-12-18T07:46:22;-4.70;99.90
8180;DHT22;4131;48.810;11.892;2022-12-18T07:48:50;-4.70;99.90
8180;DHT22;4131;48.810;11.892;2022-12-18T07:51:18;-4.70;99.90
8180;DHT22;4131;48.810;11.892;2022-12-18T07:53:47;-4.70;99.90
8180;DHT22;4131;48.810;11.892;2022-12-18T07:56:20;-4.70;99.90
8180;DHT22;4131;48.810;11.892;2022-12-18T07:58:57;-4.70;99.90
8180;DHT22;4131;48.810;11.892;2022-12-18T08:01:26;-4.60;99.90
8180;DHT22;4131;48.810;11.892;2022-12-18T08:03:55;-4.60;99.90
8180;DHT22;4131;48.810;11.892;2022-12-18T08:06:23;-4.50;99.90
8180;DHT22;4131;48.810;11.892;2022-12-18T08:08:52;-4.50;99.90
8180;DHT22;4131;48.810;11.892;2022-12-18T08:11:23;-4.50;99.90
8180;DHT22;4131;48.810;11.892;2022-12-18T08:13:52;-4.40;99.90
8180;DHT22;4131;48.810;11.892;2022-12-18T08:16:22;-4.50;99.90
8180;DHT22;4131;48.810;11.892;2022-12-18T08:18:54;-4.50;99.90
8180;DHT22;4131;48.810;11.892;2022-12-18T08:21:24;-4.50;99.90
8180;DHT22;4131;48.810;11.892;2022-12-18T08:23:54;-4.40;99.90
8180;DHT22;4131;48.810;11.892;2022-12-18T08:26:25;-4.30;99.90
8180;DHT22;4131;48.810;11.892;2022-12-18T08:28:54;-4.30;99.90
8180;DHT22;4131;48.810;11.892;2022-12-18T08:31:22;-4.30;99.90
8180;DHT22;4131;48.810;11.892;2022-12-18T08:33:51;-4.20;99.90
8180;DHT22;4131;48.810;11.892;2022-12-18T08:36:21;-4.10;99.90
8180;DHT22;4131;48.810;11.892;2022-12-18T08:38:51;-4.10;99.90
8180;DHT22;4131;48.810;11.892;2022-12-18T08:41:19;-4.00;99.90
8180;DHT22;4131;48.810;11.892;2022-12-18T08:43:49;-3.90;99.90
8180;DHT22;4131;48.810;11.892;2022-12-18T08:46:36;-3.80;99.90
8180;DHT22;4131;48.810;11.892;2022-12-18T08:49:05;-3.70;99.90
8180;DHT22;4131;48.810;11.892;2022-12-18T08:51:34;-3.70;99.90
8180;DHT22;4131;48.810;11.892;2022-12-18T08:54:03;-3.60;99.90
8180;DHT22;4131;48.810;11.892;2022-12-18T08:56:32;-3.80;99.90
8180;DHT22;4131;48.810;11.892;2022-12-18T08:59:02;-4.10;99.90
8180;DHT22;4131;48.810;11.892;2022-12-18T09:01:31;-3.90;99.90
8180;DHT22;4131;48.810;11.892;2022-12-18T09:03:59;-3.70;99.90
8180;DHT22;4131;48.810;11.892;2022-12-18T09:06:28;-3.70;99.90
8180;DHT22;4131;48.810;11.892;2022-12-18T09:08:57;-3.70;99.90
8180;DHT22;4131;48.810;11.892;2022-12-18T09:11:26;-3.60;99.90
8180;DHT22;4131;48.810;11.892;2022-12-18T09:13:56;-3.50;99.90
8180;DHT22;4131;48.810;11.892;2022-12-18T09:16:26;-3.50;99.90
8180;DHT22;4131;48.810;11.892;2022-12-18T09:18:59;-3.30;99.90
8180;DHT22;4131;48.810;11.892;2022-12-18T09:21:41;-3.60;99.90
8180;DHT22;4131;48.810;11.892;2022-12-18T09:24:36;-3.50;99.90
8180;DHT22;4131;48.810;11.892;2022-12-18T09:27:32;-3.40;99.90
8180;DHT22;4131;48.810;11.892;2022-12-18T09:30:28;-3.10;99.90
8180;DHT22;4131;48.810;11.892;2022-12-18T10:04:23;-2.90;99.90
8180;DHT22;4131;48.810;11.892;2022-12-18T10:06:55;-2.90;99.90
8180;DHT22;4131;48.810;11.892;2022-12-18T10:09:38;-3.10;99.90
8180;DHT22;4131;48.810;11.892;2022-12-18T10:12:10;-3.10;99.90
8180;DHT22;4131;48.810;11.892;2022-12-18T10:14:45;-2.90;99.90
8180;DHT22;4131;48.810;11.892;2022-12-18T10:17:23;-2.80;99.90
8180;DHT22;4131;48.810;11.892;2022-12-18T10:20:03;-1.70;99.90
8180;DHT22;4131;48.810;11.892;2022-12-18T10:22:44;-2.50;99.90
8180;DHT22;4131;48.810;11.892;2022-12-18T10:25:21;-2.40;99.90
8180;DHT22;4131;48.810;11.892;2022-12-18T10:28:10;-2.10;99.90
8180;DHT22;4131;48.810;11.892;2022-12-18T10:30:42;-2.20;99.90
8180;DHT22;4131;48.810;11.892;2022-12-18T10:33:12;-2.40;99.90
8180;DHT22;4131;48.810;11.892;2022-12-18T10:35:43;-2.50;99.90
8180;DHT22;4131;48.810;11.892;2022-12-18T10:38:24;-2.50;99.90
8180;DHT22;4131;48.810;11.892;2022-12-18T10:40:55;-2.50;99.90
8180;DHT22;4131;48.810;11.892;2022-12-18T10:43:25;-2.50;99.90
8180;DHT22;4131;48.810;11.892;2022-12-18T10:46:12;-2.50;99.90
8180;DHT22;4131;48.810;11.892;2022-12-18T10:48:51;-2.40;99.90
8180;DHT22;4131;48.810;11.892;2022-12-18T10:51:23;-2.40;99.90
8180;DHT22;4131;48.810;11.892;2022-12-18T10:53:54;-2.40;99.90
8180;DHT22;4131;48.810;11.892;2022-12-18T10:56:25;-2.40;99.90
8180;DHT22;4131;48.810;11.892;2022-12-18T10:58:59;-2.40;99.90
8180;DHT22;4131;48.810;11.892;2022-12-18T11:01:28;-2.40;99.90
8180;DHT22;4131;48.810;11.892;2022-12-18T11:04:01;-1.90;99.90
8180;DHT22;4131;48.810;11.892;2022-12-18T11:06:34;-2.20;99.90
8180;DHT22;4131;48.810;11.892;2022-12-18T11:09:04;-2.20;99.90
8180;DHT22;4131;48.810;11.892;2022-12-18T11:11:40;-2.40;99.90
8180;DHT22;4131;48.810;11.892;2022-12-18T11:14:14;-2.40;99.90
8180;DHT22;4131;48.810;11.892;2022-12-18T11:16:47;-2.40;99.90
8180;DHT22;4131;48.810;11.892;2022-12-18T11:19:38;-2.50;99.90
8180;DHT22;4131;48.810;11.892;2022-12-18T11:22:20;-2.50;99.90
8180;DHT22;4131;48.810;11.892;2022-12-18T11:24:55;-2.70;99.90
8180;DHT22;4131;48.810;11.892;2022-12-18T11:27:48;-3.20;99.90
8180;DHT22;4131;48.810;11.892;2022-12-18T11:30:22;-2.30;99.90
8180;DHT22;4131;48.810;11.892;2022-12-18T11:32:53;-3.00;99.90
8180;DHT22;4131;48.810;11.892;2022-12-18T11:35:28;-2.80;99.90
8180;DHT22;4131;48.810;11.892;2022-12-18T11:38:03;-2.70;99.90
8180;DHT22;4131;48.810;11.892;2022-12-18T11:40:35;-2.80;99.90
8180;DHT22;4131;48.810;11.892;2022-12-18T11:43:11;-2.70;99.90
8180;DHT22;4131;48.810;11.892;2022-12-18T11:45:56;-2.60;99.90
8180;DHT22;4131;48.810;11.892;2022-12-18T11:48:33;-2.50;99.90
8180;DHT22;4131;48.810;11.892;2022-12-18T11:51:04;-2.20;99.90
8180;DHT22;4131;48.810;11.892;2022-12-18T11:53:35;-1.90;99.90
8180;DHT22;4131;48.810;11.892;2022-12-18T11:56:18;-1.70;99.90
8180;DHT22;4131;48.810;11.892;2022-12-18T11:58:53;-1.00;99.90
8180;DHT22;4131;48.810;11.892;2022-12-18T12:01:35;-1.80;99.90
8180;DHT22;4131;48.810;11.892;2022-12-18T12:04:43;-2.00;99.90
8180;DHT22;4131;48.810;11.892;2022-12-18T12:07:23;-1.90;99.90
8180;DHT22;4131;48.810;11.892;2022-12-18T12:10:05;-2.00;99.90
8180;DHT22;4131;48.810;11.892;2022-12-18T12:12:39;-1.90;99.90
8180;DHT22;4131;48.810;11.892;2022-12-18T12:15:25;-2.00;99.90
8180;DHT22;4131;48.810;11.892;2022-12-18T12:18:00;-1.80;99.90
8180;DHT22;4131;48.810;11.892;2022-12-18T12:20:45;-0.90;99.90
8180;DHT22;4131;48.810;11.892;2022-12-18T12:23:23;-1.80;99.90
8180;DHT22;4131;48.810;11.892;2022-12-18T12:26:00;-1.90;99.90
8180;DHT22;4131;48.810;11.892;2022-12-18T12:31:32;-2.00;99.90
8180;DHT22;4131;48.810;11.892;2022-12-18T12:34:11;-2.20;99.90
8180;DHT22;4131;48.810;11.892;2022-12-18T12:36:51;-2.30;99.90
8180;DHT22;4131;48.810;11.892;2022-12-18T12:39:23;-2.40;99.90
8180;DHT22;4131;48.810;11.892;2022-12-18T12:41:54;-1.40;99.90
8180;DHT22;4131;48.810;11.892;2022-12-18T12:44:57;-2.50;99.90
8180;DHT22;4131;48.810;11.892;2022-12-18T12:47:30;-2.30;99.90
8180;DHT22;4131;48.810;11.892;2022-12-18T12:50:01;-2.30;99.90
8180;DHT22;4131;48.810;11.892;2022-12-18T12:52:37;-2.30;99.90
8180;DHT22;4131;48.810;11.892;2022-12-18T12:55:14;-2.50;99.90
8180;DHT22;4131;48.810;11.892;2022-12-18T12:57:47;-2.30;99.90
8180;DHT22;4131;48.810;11.892;2022-12-18T13:00:18;-2.40;99.90
8180;DHT22;4131;48.810;11.892;2022-12-18T13:02:52;-2.40;99.90
8180;DHT22;4131;48.810;11.892;2022-12-18T13:05:28;-2.50;99.90
8180;DHT22;4131;48.810;11.892;2022-12-18T13:08:00;-2.60;99.90
8180;DHT22;4131;48.810;11.892;2022-12-18T13:10:34;-2.20;99.90
8180;DHT22;4131;48.810;11.892;2022-12-18T13:13:06;-2.80;99.90
8180;DHT22;4131;48.810;11.892;2022-12-18T13:15:38;-2.60;99.90
8180;DHT22;4131;48.810;11.892;2022-12-18T13:18:14;-2.40;99.90
8180;DHT22;4131;48.810;11.892;2022-12-18T13:20:45;-2.30;99.90
8180;DHT22;4131;48.810;11.892;2022-12-18T13:23:38;-2.60;99.90
8180;DHT22;4131;48.810;11.892;2022-12-18T13:26:32;-2.40;99.90
8180;DHT22;4131;48.810;11.892;2022-12-18T13:29:03;-2.40;99.90
8180;DHT22;4131;48.810;11.892;2022-12-18T13:34:31;-2.10;99.90
8180;DHT22;4131;48.810;11.892;2022-12-18T13:43:23;-1.90;99.90
8180;DHT22;4131;48.810;11.892;2022-12-18T13:46:01;-2.20;99.90
8180;DHT22;4131;48.810;11.892;2022-12-18T13:48:32;-2.40;99.90
8180;DHT22;4131;48.810;11.892;2022-12-18T13:51:03;-2.60;99.90
8180;DHT22;4131;48.810;11.892;2022-12-18T13:53:36;-2.60;99.90
8180;DHT22;4131;48.810;11.892;2022-12-18T13:56:07;-2.70;99.90
8180;DHT22;4131;48.810;11.892;2022-12-18T13:58:35;-2.60;99.90
8180;DHT22;4131;48.810;11.892;2022-12-18T14:01:23;-2.70;99.90
8180;DHT22;4131;48.810;11.892;2022-12-18T14:04:08;-3.00;99.90
8180;DHT22;4131;48.810;11.892;2022-12-18T14:06:37;-3.20;99.90
8180;DHT22;4131;48.810;11.892;2022-12-18T14:09:08;-3.20;99.90
8180;DHT22;4131;48.810;11.892;2022-12-18T14:11:45;-3.20;99.90
8180;DHT22;4131;48.810;11.892;2022-12-18T14:14:14;-3.20;99.90
8180;DHT22;4131;48.810;11.892;2022-12-18T14:16:45;-3.20;99.90
8180;DHT22;4131;48.810;11.892;2022-12-18T14:19:17;-3.20;99.90
8180;DHT22;4131;48.810;11.892;2022-12-18T14:21:46;-3.20;99.90
8180;DHT22;4131;48.810;11.892;2022-12-18T14:24:16;-3.20;99.90
8180;DHT22;4131;48.810;11.892;2022-12-18T14:26:46;-3.30;99.90
8180;DHT22;4131;48.810;11.892;2022-12-18T14:29:22;-3.40;99.90
8180;DHT22;4131;48.810;11.892;2022-12-18T14:32:10;-3.00;99.90
8180;DHT22;4131;48.810;11.892;2022-12-18T14:34:44;-3.40;99.90
8180;DHT22;4131;48.810;11.892;2022-12-18T14:37:14;-3.60;99.90
8180;DHT22;4131;48.810;11.892;2022-12-18T14:39:55;-3.70;99.90
8180;DHT22;4131;48.810;11.892;2022-12-18T14:42:25;-3.80;99.90
8180;DHT22;4131;48.810;11.892;2022-12-18T14:45:33;-3.80;99.90
8180;DHT22;4131;48.810;11.892;2022-12-18T14:48:15;-3.90;99.90
8180;DHT22;4131;48.810;11.892;2022-12-18T14:50:58;-4.10;99.90
8180;DHT22;4131;48.810;11.892;2022-12-18T14:53:33;-4.20;99.90
8180;DHT22;4131;48.810;11.892;2022-12-18T14:56:02;-4.30;99.90
8180;DHT22;4131;48.810;11.892;2022-12-18T14:58:31;-4.40;99.90
8180;DHT22;4131;48.810;11.892;2022-12-18T15:00:59;-4.50;99.90
8180;DHT22;4131;48.810;11.892;2022-12-18T15:03:28;-4.50;99.90
8180;DHT22;4131;48.810;11.892;2022-12-18T15:06:15;-4.60;99.90
8180;DHT22;4131;48.810;11.892;2022-12-18T15:08:43;-4.70;99.90
8180;DHT22;4131;48.810;11.892;2022-12-18T15:11:30;-4.80;99.90
8180;DHT22;4131;48.810;11.892;2022-12-18T15:17:15;-5.00;99.90
8180;DHT22;4131;48.810;11.892;2022-12-18T15:19:46;-5.10;99.90
8180;DHT22;4131;48.810;11.892;2022-12-18T15:22:25;-5.20;99.90
8180;DHT22;4131;48.810;11.892;2022-12-18T15:24:54;-5.30;99.90
8180;DHT22;4131;48.810;11.892;2022-12-18T15:27:29;-5.40;99.90
8180;DHT22;4131;48.810;11.892;2022-12-18T15:30:19;-5.50;99.90
8180;DHT22;4131;48.810;11.892;2022-12-18T15:32:48;-5.60;99.90
8180;DHT22;4131;48.810;11.892;2022-12-18T15:35:20;-5.70;99.90
8180;DHT22;4131;48.810;11.892;2022-12-18T15:37:50;-5.80;99.90
8180;DHT22;4131;48.810;11.892;2022-12-18T15:40:19;-5.90;99.90
8180;DHT22;4131;48.810;11.892;2022-12-18T15:42:48;-5.90;99.90
8180;DHT22;4131;48.810;11.892;2022-12-18T15:45:34;-6.00;99.90
8180;DHT22;4131;48.810;11.892;2022-12-18T15:48:03;-6.10;99.90
8180;DHT22;4131;48.810;11.892;2022-12-18T15:50:33;-6.20;99.90
8180;DHT22;4131;48.810;11.892;2022-12-18T15:53:01;-6.20;99.90
8180;DHT22;4131;48.810;11.892;2022-12-18T15:55:31;-6.30;99.90
8180;DHT22;4131;48.810;11.892;2022-12-18T15:58:16;-6.30;99.90
8180;DHT22;4131;48.810;11.892;2022-12-18T16:00:44;-6.30;99.90
8180;DHT22;4131;48.810;11.892;2022-12-18T16:03:12;-6.50;99.90
8180;DHT22;4131;48.810;11.892;2022-12-18T16:05:42;-6.50;99.90
8180;DHT22;4131;48.810;11.892;2022-12-18T16:08:10;-6.60;99.90
8180;DHT22;4131;48.810;11.892;2022-12-18T16:10:38;-6.70;99.90
8180;DHT22;4131;48.810;11.892;2022-12-18T16:13:09;-6.80;99.90
8180;DHT22;4131;48.810;11.892;2022-12-18T16:15:37;-6.80;99.90
8180;DHT22;4131;48.810;11.892;2022-12-18T16:18:05;-6.90;99.90
8180;DHT22;4131;48.810;11.892;2022-12-18T16:20:33;-6.90;99.90
8180;DHT22;4131;48.810;11.892;2022-12-18T16:23:03;-7.00;99.90
8180;DHT22;4131;48.810;11.892;2022-12-18T16:25:31;-7.00;99.90
8180;DHT22;4131;48.810;11.892;2022-12-18T16:27:59;-7.00;99.90
8180;DHT22;4131;48.810;11.892;2022-12-18T16:30:29;-7.10;99.90
8180;DHT22;4131;48.810;11.892;2022-12-18T16:33:04;-7.10;99.90
8180;DHT22;4131;48.810;11.892;2022-12-18T16:35:33;-7.10;99.90
8180;DHT22;4131;48.810;11.892;2022-12-18T16:38:05;-7.20;99.90
8180;DHT22;4131;48.810;11.892;2022-12-18T16:40:33;-7.30;99.90
8180;DHT22;4131;48.810;11.892;2022-12-18T16:43:21;-7.30;99.90
8180;DHT22;4131;48.810;11.892;2022-12-18T16:45:49;-7.40;99.90
8180;DHT22;4131;48.810;11.892;2022-12-18T16:48:17;-7.40;99.90
8180;DHT22;4131;48.810;11.892;2022-12-18T16:50:45;-7.40;99.90
8180;DHT22;4131;48.810;11.892;2022-12-18T16:53:15;-7.50;99.90
8180;DHT22;4131;48.810;11.892;2022-12-18T16:55:44;-7.50;99.90
8180;DHT22;4131;48.810;11.892;2022-12-18T16:58:12;-7.50;99.90
8180;DHT22;4131;48.810;11.892;2022-12-18T17:00:40;-7.60;99.90
8180;DHT22;4131;48.810;11.892;2022-12-18T17:03:08;-7.60;99.90
8180;DHT22;4131;48.810;11.892;2022-12-18T17:05:37;-7.60;99.90